createdAt,value
2022-07-29T00:01:04.451Z,21.69
2022-07-29T00:03:31.596Z,21.70
2022-07-29T00:05:58.632Z,21.71
2022-07-29T00:08:27.717Z,21.73
2022-07-29T00:10:54.710Z,21.74
2022-07-29T00:13:32.640Z,21.76
2022-07-29T00:16:04.812Z,21.79
2022-07-29T00:18:32.947Z,21.76
2022-07-29T00:21:00.169Z,21.75
2022-07-29T00:23:27.071Z,21.76
2022-07-29T00:25:53.956Z,21.76
2022-07-29T00:28:21.076Z,21.81
2022-07-29T00:30:48.015Z,21.81
2022-07-29T00:33:14.930Z,21.83
2022-07-29T00:35:44.833Z,21.82
2022-07-29T00:38:21.115Z,21.83
2022-07-29T00:40:48.599Z,21.84
2022-07-29T00:43:15.912Z,21.82
2022-07-29T00:45:43.575Z,21.82
2022-07-29T00:48:10.692Z,21.75
2022-07-29T00:50:38.497Z,21.78
2022-07-29T00:53:07.310Z,21.79
2022-07-29T00:55:34.263Z,21.79
2022-07-29T00:58:01.566Z,21.80
2022-07-29T01:00:31.752Z,21.80
2022-07-29T01:02:59.258Z,21.79
2022-07-29T01:05:50.327Z,21.80
2022-07-29T01:08:15.741Z,21.79
2022-07-29T01:10:43.205Z,21.77
2022-07-29T01:13:10.653Z,21.77
2022-07-29T01:15:55.743Z,21.76
2022-07-29T01:18:43.687Z,21.77
2022-07-29T01:21:36.766Z,21.75
2022-07-29T01:24:17.639Z,21.74
2022-07-29T01:26:54.490Z,21.74
2022-07-29T01:29:40.352Z,21.72
2022-07-29T01:32:21.547Z,21.67
2022-07-29T01:35:08.004Z,21.65
2022-07-29T01:37:40.041Z,21.66
2022-07-29T01:40:15.803Z,21.62
2022-07-29T01:42:50.847Z,21.65
2022-07-29T01:45:28.226Z,21.68
2022-07-29T01:48:03.746Z,21.66
2022-07-29T01:50:42.067Z,21.64
2022-07-29T01:53:10.747Z,21.64
2022-07-29T01:55:40.579Z,21.66
2022-07-29T01:58:08.374Z,21.65
2022-07-29T02:00:35.894Z,21.65
2022-07-29T02:03:07.393Z,21.64
2022-07-29T02:05:34.851Z,21.64
2022-07-29T02:08:02.549Z,21.64
2022-07-29T02:10:33.176Z,21.63
2022-07-29T02:13:00.800Z,21.63
2022-07-29T02:15:30.054Z,21.64
2022-07-29T02:18:01.710Z,21.64
2022-07-29T02:20:30.016Z,21.63
2022-07-29T02:22:58.249Z,21.65
2022-07-29T02:25:25.651Z,21.60
2022-07-29T02:28:05.491Z,21.61
2022-07-29T02:30:33.229Z,21.59
2022-07-29T02:33:00.430Z,21.58
2022-07-29T02:35:27.437Z,21.52
2022-07-29T02:38:13.005Z,21.55
2022-07-29T02:40:41.158Z,21.58
2022-07-29T02:43:08.889Z,21.57
2022-07-29T02:45:35.807Z,21.58
2022-07-29T02:48:12.008Z,21.56
2022-07-29T02:50:42.845Z,21.54
2022-07-29T02:53:19.010Z,21.50
2022-07-29T02:55:51.340Z,21.47
2022-07-29T02:58:32.487Z,21.41
2022-07-29T03:01:04.619Z,21.41
2022-07-29T03:03:36.427Z,21.46
2022-07-29T03:06:04.018Z,21.48
2022-07-29T03:08:32.404Z,21.48
2022-07-29T03:10:59.912Z,21.50
2022-07-29T03:13:27.005Z,21.48
2022-07-29T03:15:55.391Z,21.49
2022-07-29T03:18:22.853Z,21.48
2022-07-29T03:20:49.920Z,21.47
2022-07-29T03:23:21.224Z,21.47
2022-07-29T03:25:48.115Z,21.46
2022-07-29T03:28:15.021Z,21.46
2022-07-29T03:30:44.501Z,21.44
2022-07-29T03:33:13.473Z,21.38
2022-07-29T03:35:40.787Z,21.37
2022-07-29T03:38:08.086Z,21.40
2022-07-29T03:40:52.920Z,21.41
2022-07-29T03:43:20.178Z,21.41
2022-07-29T03:45:52.390Z,21.40
2022-07-29T03:48:21.922Z,21.39
2022-07-29T03:50:49.312Z,21.38
2022-07-29T03:53:16.225Z,21.36
2022-07-29T03:55:47.463Z,21.37
2022-07-29T03:58:15.275Z,21.36
2022-07-29T04:00:43.384Z,21.37
2022-07-29T04:03:11.706Z,21.35
2022-07-29T04:05:38.962Z,21.36
2022-07-29T04:08:06.309Z,21.35
2022-07-29T04:10:33.986Z,21.35
2022-07-29T04:13:01.361Z,21.35
2022-07-29T04:15:31.113Z,21.35
2022-07-29T04:17:58.939Z,21.34
2022-07-29T04:20:25.870Z,21.32
2022-07-29T04:22:52.766Z,21.31
2022-07-29T04:25:19.627Z,21.31
2022-07-29T04:28:01.757Z,21.31
2022-07-29T04:30:29.095Z,21.32
2022-07-29T04:32:56.157Z,21.32
2022-07-29T04:35:23.325Z,21.33
2022-07-29T04:37:50.158Z,21.33
2022-07-29T04:40:17.118Z,21.32
2022-07-29T04:42:46.375Z,21.31
2022-07-29T04:45:14.357Z,21.29
2022-07-29T04:47:41.514Z,21.27
2022-07-29T04:50:09.739Z,21.28
2022-07-29T04:52:36.689Z,21.26
2022-07-29T04:55:05.143Z,21.27
2022-07-29T04:57:32.030Z,21.26
2022-07-29T04:59:58.975Z,21.23
2022-07-29T05:02:25.910Z,21.19
2022-07-29T05:04:52.794Z,21.26
2022-07-29T05:07:19.871Z,21.26
2022-07-29T05:09:46.747Z,21.23
2022-07-29T05:12:13.691Z,21.21
2022-07-29T05:14:40.582Z,21.16
2022-07-29T05:17:07.521Z,21.19
2022-07-29T05:19:34.476Z,21.19
2022-07-29T05:22:06.742Z,21.18
2022-07-29T05:24:33.659Z,21.20
2022-07-29T05:27:00.723Z,21.15
2022-07-29T05:29:42.629Z,21.18
2022-07-29T05:32:12.212Z,21.12
2022-07-29T05:34:50.169Z,21.16
2022-07-29T05:37:19.693Z,21.19
2022-07-29T05:39:48.918Z,21.24
2022-07-29T05:42:17.714Z,21.26
2022-07-29T05:44:44.708Z,21.29
2022-07-29T05:47:12.693Z,21.30
2022-07-29T05:49:39.696Z,21.26
2022-07-29T05:52:06.696Z,21.28
2022-07-29T05:54:33.605Z,21.28
2022-07-29T05:57:00.472Z,21.25
2022-07-29T05:59:30.452Z,21.25
2022-07-29T06:01:58.567Z,21.16
2022-07-29T06:04:26.227Z,21.15
2022-07-29T06:06:53.184Z,21.21
2022-07-29T06:09:20.334Z,21.24
2022-07-29T06:11:47.300Z,21.21
2022-07-29T06:14:14.664Z,21.22
2022-07-29T06:16:42.264Z,21.27
2022-07-29T06:19:10.478Z,21.23
2022-07-29T06:21:38.737Z,21.31
2022-07-29T06:24:09.566Z,21.38
2022-07-29T06:26:39.582Z,21.42
2022-07-29T06:29:07.813Z,21.46
2022-07-29T06:31:35.141Z,21.49
2022-07-29T06:34:02.134Z,21.52
2022-07-29T06:36:30.781Z,21.56
2022-07-29T06:38:57.860Z,21.59
2022-07-29T06:41:24.969Z,21.62
2022-07-29T06:43:54.573Z,21.64
2022-07-29T06:46:24.231Z,21.67
2022-07-29T06:48:53.007Z,21.71
2022-07-29T06:51:22.651Z,21.72
2022-07-29T06:53:58.391Z,21.74
2022-07-29T06:56:29.394Z,21.77
2022-07-29T06:58:56.482Z,21.75
2022-07-29T07:01:23.458Z,21.78
2022-07-29T07:03:50.538Z,21.79
2022-07-29T07:06:17.818Z,21.80
2022-07-29T07:08:44.897Z,21.81
2022-07-29T07:11:12.465Z,21.87
2022-07-29T07:13:39.735Z,21.90
2022-07-29T07:16:07.098Z,21.99
2022-07-29T07:18:34.370Z,22.01
2022-07-29T07:21:02.636Z,22.12
2022-07-29T07:23:30.196Z,22.22
2022-07-29T07:25:57.157Z,22.29
2022-07-29T07:28:24.889Z,22.33
2022-07-29T07:30:52.974Z,22.42
2022-07-29T07:33:20.233Z,22.44
2022-07-29T07:35:47.346Z,22.46
2022-07-29T07:38:14.611Z,22.51
2022-07-29T07:40:42.058Z,22.54
2022-07-29T07:43:09.165Z,22.55
2022-07-29T07:45:38.456Z,22.62
2022-07-29T07:48:06.184Z,22.64
2022-07-29T07:50:33.270Z,22.69
2022-07-29T07:53:00.710Z,22.74
2022-07-29T07:55:27.792Z,22.75
2022-07-29T07:57:55.831Z,22.76
2022-07-29T08:00:23.817Z,22.80
2022-07-29T08:02:51.446Z,22.84
2022-07-29T08:05:18.872Z,22.88
2022-07-29T08:07:47.607Z,22.92
2022-07-29T08:10:36.860Z,22.96
2022-07-29T08:13:05.534Z,22.94
2022-07-29T08:15:32.473Z,22.97
2022-07-29T08:17:59.365Z,23.01
2022-07-29T08:20:26.804Z,23.03
2022-07-29T08:22:54.668Z,23.10
2022-07-29T08:25:22.184Z,23.09
2022-07-29T08:27:49.222Z,23.15
2022-07-29T08:30:16.269Z,23.19
2022-07-29T08:32:53.847Z,23.23
2022-07-29T08:35:25.317Z,23.27
2022-07-29T08:37:53.118Z,23.28
2022-07-29T08:40:31.960Z,23.36
2022-07-29T08:42:59.961Z,23.40
2022-07-29T08:45:27.387Z,23.44
2022-07-29T08:47:54.679Z,23.48
2022-07-29T08:50:21.667Z,23.51
2022-07-29T08:52:49.911Z,23.54
2022-07-29T08:55:21.312Z,23.58
2022-07-29T08:57:52.016Z,23.63
2022-07-29T09:00:22.901Z,23.69
2022-07-29T09:02:52.892Z,23.74
2022-07-29T09:05:20.492Z,23.78
2022-07-29T09:07:49.432Z,23.84
2022-07-29T09:10:16.301Z,23.92
2022-07-29T09:12:52.918Z,23.99
2022-07-29T09:15:19.919Z,24.03
2022-07-29T09:17:49.682Z,24.07
2022-07-29T09:20:19.627Z,24.10
2022-07-29T09:22:54.686Z,24.14
2022-07-29T09:25:38.776Z,24.27
2022-07-29T09:28:09.856Z,24.32
2022-07-29T09:30:38.023Z,24.39
2022-07-29T09:33:05.029Z,24.48
2022-07-29T09:35:32.799Z,24.57
2022-07-29T09:38:11.782Z,24.66
2022-07-29T09:40:38.839Z,24.79
2022-07-29T09:43:13.397Z,24.92
2022-07-29T09:45:40.803Z,25.02
2022-07-29T09:48:19.368Z,25.13
2022-07-29T09:50:48.060Z,25.23
2022-07-29T09:53:31.672Z,25.31
2022-07-29T09:55:58.969Z,25.39
2022-07-29T09:58:26.076Z,25.47
2022-07-29T10:00:54.751Z,25.53
2022-07-29T10:03:22.486Z,25.59
2022-07-29T10:06:14.753Z,25.69
2022-07-29T10:08:42.871Z,25.75
2022-07-29T10:11:15.161Z,25.79
2022-07-29T10:13:45.472Z,25.84
2022-07-29T10:16:14.353Z,25.89
2022-07-29T10:18:45.157Z,25.93
2022-07-29T10:21:34.520Z,25.96
2022-07-29T10:24:03.048Z,26.01
2022-07-29T10:26:31.337Z,26.00
2022-07-29T10:29:01.173Z,26.01
2022-07-29T10:31:50.579Z,26.10
2022-07-29T10:34:27.544Z,26.17
2022-07-29T10:37:11.822Z,26.22
2022-07-29T10:39:49.657Z,26.29
2022-07-29T10:42:33.915Z,26.40
2022-07-29T10:45:02.314Z,26.44
2022-07-29T10:47:29.528Z,26.51
2022-07-29T10:50:07.320Z,26.52
2022-07-29T10:52:55.812Z,26.56
2022-07-29T10:55:43.680Z,26.56
2022-07-29T10:58:22.492Z,26.58
2022-07-29T11:00:54.345Z,26.61
2022-07-29T11:07:03.901Z,26.76
2022-07-29T11:09:37.473Z,26.83
2022-07-29T11:12:12.774Z,26.86
2022-07-29T11:15:01.807Z,26.92
2022-07-29T11:17:47.287Z,26.96
2022-07-29T11:20:45.742Z,26.97
2022-07-29T11:23:26.049Z,27.02
2022-07-29T11:26:18.903Z,27.04
2022-07-29T11:28:53.653Z,27.06
2022-07-29T11:31:37.184Z,27.12
2022-07-29T11:34:34.854Z,27.15
2022-07-29T11:37:10.898Z,27.17
2022-07-29T11:40:10.929Z,27.21
2022-07-29T11:42:41.926Z,27.22
2022-07-29T11:45:41.415Z,27.24
2022-07-29T11:48:27.879Z,27.30
2022-07-29T11:50:55.157Z,27.31
2022-07-29T11:53:25.119Z,27.34
2022-07-29T11:55:55.995Z,27.37
2022-07-29T11:58:25.169Z,27.41
2022-07-29T12:00:55.286Z,27.40
2022-07-29T12:03:35.479Z,27.40
2022-07-29T12:06:07.467Z,27.38
2022-07-29T12:08:42.032Z,27.41
2022-07-29T12:11:20.448Z,27.43
2022-07-29T12:13:49.306Z,27.44
2022-07-29T12:16:27.895Z,27.48
2022-07-29T12:18:58.265Z,27.54
2022-07-29T12:21:26.630Z,27.53
2022-07-29T12:23:59.425Z,27.57
2022-07-29T12:26:31.887Z,27.61
2022-07-29T12:29:02.307Z,27.63
2022-07-29T12:31:43.166Z,27.64
2022-07-29T12:34:13.777Z,27.68
2022-07-29T12:36:42.365Z,27.74
2022-07-29T12:39:10.553Z,27.78
2022-07-29T12:41:37.509Z,27.78
2022-07-29T12:44:05.826Z,27.79
2022-07-29T12:46:32.832Z,27.81
2022-07-29T12:48:59.878Z,27.80
2022-07-29T12:51:34.613Z,27.82
2022-07-29T12:54:16.935Z,27.82
2022-07-29T12:56:46.168Z,27.83
2022-07-29T12:59:22.283Z,27.88
2022-07-29T13:01:51.489Z,27.89
2022-07-29T13:04:29.606Z,27.91
2022-07-29T13:07:13.122Z,27.94
2022-07-29T13:09:49.647Z,28.03
2022-07-29T13:12:16.617Z,27.97
2022-07-29T13:14:45.521Z,27.94
2022-07-29T13:17:17.240Z,27.97
2022-07-29T13:19:54.673Z,28.00
2022-07-29T13:22:23.994Z,27.97
2022-07-29T13:24:58.146Z,28.01
2022-07-29T13:27:30.667Z,28.05
2022-07-29T13:29:59.920Z,28.02
2022-07-29T13:32:29.004Z,28.04
2022-07-29T13:35:05.438Z,28.09
2022-07-29T13:37:35.339Z,28.09
2022-07-29T13:40:04.385Z,28.11
2022-07-29T13:42:32.922Z,28.15
2022-07-29T13:45:00.599Z,28.14
2022-07-29T13:47:32.592Z,28.09
2022-07-29T13:50:01.512Z,28.09
2022-07-29T13:52:28.513Z,28.02
2022-07-29T13:54:55.444Z,28.01
2022-07-29T13:57:22.353Z,28.01
2022-07-29T13:59:53.576Z,28.01
2022-07-29T14:02:21.706Z,27.99
2022-07-29T14:04:56.091Z,28.00
2022-07-29T14:07:23.989Z,28.01
2022-07-29T14:09:51.729Z,28.03
2022-07-29T14:12:18.872Z,28.04
2022-07-29T14:14:47.257Z,28.06
2022-07-29T14:17:14.716Z,28.02
2022-07-29T14:19:41.750Z,28.01
2022-07-29T14:22:09.748Z,28.02
2022-07-29T14:24:38.191Z,28.04
2022-07-29T14:27:06.727Z,28.03
2022-07-29T14:29:37.414Z,28.04
2022-07-29T14:32:10.184Z,28.04
2022-07-29T14:34:37.815Z,28.03
2022-07-29T14:37:06.933Z,28.06
2022-07-29T14:39:36.940Z,28.07
2022-07-29T14:42:06.854Z,28.09
2022-07-29T14:44:33.730Z,28.04
2022-07-29T14:47:01.555Z,28.08
2022-07-29T14:49:35.265Z,28.09
2022-07-29T14:52:02.281Z,28.16
2022-07-29T14:54:29.441Z,28.12
2022-07-29T14:56:58.669Z,28.15
2022-07-29T14:59:26.722Z,28.12
2022-07-29T15:01:53.947Z,28.09
2022-07-29T15:04:21.309Z,28.09
2022-07-29T15:06:48.310Z,28.07
2022-07-29T15:09:15.384Z,28.02
2022-07-29T15:11:42.366Z,27.99
2022-07-29T15:14:09.477Z,27.96
2022-07-29T15:16:38.110Z,27.94
2022-07-29T15:19:05.773Z,27.96
2022-07-29T15:21:33.100Z,27.93
2022-07-29T15:24:00.067Z,27.91
2022-07-29T15:26:27.504Z,27.93
2022-07-29T15:28:54.425Z,27.90
2022-07-29T15:31:21.398Z,27.92
2022-07-29T15:33:48.845Z,27.90
2022-07-29T15:36:42.238Z,27.89
2022-07-29T15:39:03.501Z,27.91
2022-07-29T15:41:30.529Z,27.93
2022-07-29T15:43:57.802Z,27.92
2022-07-29T15:46:43.244Z,27.89
2022-07-29T15:49:10.306Z,27.89
2022-07-29T15:51:37.353Z,27.87
2022-07-29T15:54:04.868Z,27.84
2022-07-29T15:56:32.175Z,27.81
2022-07-29T15:58:59.397Z,27.83
2022-07-29T16:01:28.358Z,27.79
2022-07-29T16:03:55.429Z,27.78
2022-07-29T16:06:22.519Z,27.79
2022-07-29T16:08:49.417Z,27.79
2022-07-29T16:11:16.319Z,27.80
2022-07-29T16:13:43.189Z,27.77
2022-07-29T16:16:10.738Z,27.78
2022-07-29T16:18:37.646Z,27.73
2022-07-29T16:21:04.676Z,27.70
2022-07-29T16:23:32.408Z,27.70
2022-07-29T16:26:00.892Z,27.68
2022-07-29T16:28:29.298Z,27.67
2022-07-29T16:30:56.297Z,27.63
2022-07-29T16:33:23.809Z,27.64
2022-07-29T16:35:51.461Z,27.60
2022-07-29T16:38:18.369Z,27.58
2022-07-29T16:40:45.416Z,27.55
2022-07-29T16:43:12.288Z,27.53
2022-07-29T16:45:46.358Z,27.52
2022-07-29T16:48:15.177Z,27.48
2022-07-29T16:50:48.606Z,27.44
2022-07-29T16:53:20.004Z,27.44
2022-07-29T16:55:47.169Z,27.39
2022-07-29T16:58:14.286Z,27.34
2022-07-29T17:00:41.301Z,27.36
2022-07-29T17:03:08.262Z,27.35
2022-07-29T17:05:50.736Z,27.32
2022-07-29T17:08:21.159Z,27.26
2022-07-29T17:10:48.270Z,27.01
2022-07-29T17:13:15.115Z,27.12
2022-07-29T17:15:44.929Z,27.14
2022-07-29T17:18:12.704Z,27.17
2022-07-29T17:20:41.676Z,27.17
2022-07-29T17:23:08.606Z,27.18
2022-07-29T17:25:35.556Z,27.17
2022-07-29T17:28:02.457Z,27.14
2022-07-29T17:30:30.122Z,27.13
2022-07-29T17:32:57.272Z,27.14
2022-07-29T17:35:42.648Z,27.14
2022-07-29T17:38:09.565Z,27.13
2022-07-29T17:40:36.706Z,27.10
2022-07-29T17:43:04.910Z,27.05
2022-07-29T17:45:48.759Z,27.04
2022-07-29T17:48:17.508Z,27.05
2022-07-29T17:50:44.385Z,27.01
2022-07-29T17:53:16.218Z,26.99
2022-07-29T17:55:45.855Z,27.00
2022-07-29T17:58:12.806Z,26.96
2022-07-29T18:00:40.168Z,26.96
2022-07-29T18:03:07.705Z,26.94
2022-07-29T18:05:35.270Z,26.90
2022-07-29T18:08:02.563Z,26.89
2022-07-29T18:10:30.644Z,26.87
2022-07-29T18:12:57.608Z,26.87
2022-07-29T18:15:24.449Z,26.83
2022-07-29T18:17:56.920Z,26.81
2022-07-29T18:20:26.049Z,26.78
2022-07-29T18:22:53.181Z,26.74
2022-07-29T18:25:20.254Z,26.73
2022-07-29T18:27:47.175Z,26.71
2022-07-29T18:30:15.348Z,26.67
2022-07-29T18:32:54.355Z,26.66
2022-07-29T18:35:26.884Z,26.64
2022-07-29T18:38:00.894Z,26.59
2022-07-29T18:40:29.914Z,26.56
2022-07-29T18:42:57.056Z,26.53
2022-07-29T18:45:28.417Z,26.49
2022-07-29T18:47:56.648Z,26.43
2022-07-29T18:50:28.919Z,26.40
2022-07-29T18:52:58.930Z,26.38
2022-07-29T18:55:26.282Z,26.33
2022-07-29T18:57:56.139Z,26.30
2022-07-29T19:00:24.902Z,26.27
2022-07-29T19:02:52.895Z,26.23
2022-07-29T19:05:20.039Z,26.20
2022-07-29T19:07:46.949Z,26.18
2022-07-29T19:10:13.913Z,26.13
2022-07-29T19:12:40.821Z,26.10
2022-07-29T19:15:08.386Z,26.09
2022-07-29T19:17:35.290Z,26.05
2022-07-29T19:20:02.504Z,26.00
2022-07-29T19:22:29.497Z,25.93
2022-07-29T19:24:56.370Z,25.93
2022-07-29T19:27:23.266Z,25.88
2022-07-29T19:29:50.153Z,25.86
2022-07-29T19:32:24.822Z,25.81
2022-07-29T19:35:11.096Z,25.77
2022-07-29T19:37:37.963Z,25.71
2022-07-29T19:40:06.431Z,25.65
2022-07-29T19:42:33.631Z,25.60
2022-07-29T19:45:00.494Z,25.54
2022-07-29T19:47:27.383Z,25.53
2022-07-29T19:49:54.245Z,25.49
2022-07-29T19:52:21.182Z,25.44
2022-07-29T19:54:48.321Z,25.39
2022-07-29T19:57:15.177Z,25.36
2022-07-29T19:59:42.085Z,25.32
2022-07-29T20:02:12.437Z,25.26
2022-07-29T20:04:39.728Z,25.17
2022-07-29T20:07:06.856Z,25.13
2022-07-29T20:09:33.796Z,25.08
2022-07-29T20:12:00.862Z,25.03
2022-07-29T20:14:27.865Z,25.04
2022-07-29T20:16:54.767Z,24.99
2022-07-29T20:19:21.984Z,24.98
2022-07-29T20:21:48.863Z,24.92
2022-07-29T20:24:15.861Z,24.91
2022-07-29T20:26:42.865Z,24.83
2022-07-29T20:29:09.701Z,24.76
2022-07-29T20:31:36.800Z,24.75
2022-07-29T20:34:04.135Z,24.69
2022-07-29T20:36:31.095Z,24.66
2022-07-29T20:39:00.107Z,24.58
2022-07-29T20:41:27.181Z,24.52
2022-07-29T20:43:54.071Z,24.47
2022-07-29T20:46:21.475Z,24.47
2022-07-29T20:48:48.455Z,24.48
2022-07-29T20:51:15.509Z,24.44
2022-07-29T20:53:42.343Z,24.45
2022-07-29T20:56:09.238Z,24.41
2022-07-29T20:58:36.666Z,24.36
2022-07-29T21:01:04.308Z,24.34
2022-07-29T21:03:31.475Z,24.31
2022-07-29T21:05:59.221Z,24.25
2022-07-29T21:08:26.573Z,24.24
2022-07-29T21:10:54.172Z,24.17
2022-07-29T21:13:22.582Z,24.16
2022-07-29T21:15:51.788Z,24.11
2022-07-29T21:18:32.604Z,24.09
2022-07-29T21:21:00.660Z,24.05
2022-07-29T21:23:28.239Z,24.05
2022-07-29T21:25:55.557Z,24.02
2022-07-29T21:28:36.901Z,23.98
2022-07-29T21:31:07.070Z,23.91
2022-07-29T21:33:34.042Z,23.90
2022-07-29T21:38:49.311Z,23.86
2022-07-29T21:41:16.199Z,23.77
2022-07-29T21:43:43.127Z,23.79
2022-07-29T21:46:10.071Z,23.74
2022-07-29T21:48:40.074Z,23.73
2022-07-29T21:51:09.318Z,23.73
2022-07-29T21:53:36.269Z,23.71
2022-07-29T21:56:03.198Z,23.66
2022-07-29T21:58:31.241Z,23.65
2022-07-29T22:00:58.191Z,23.62
2022-07-29T22:03:25.090Z,23.61
2022-07-29T22:05:52.101Z,23.61
2022-07-29T22:08:20.110Z,23.60
2022-07-29T22:10:46.949Z,23.59
2022-07-29T22:13:13.854Z,23.57
2022-07-29T22:15:45.346Z,23.53
2022-07-29T22:18:13.879Z,23.50
2022-07-29T22:20:49.761Z,23.48
2022-07-29T22:23:16.776Z,23.47
2022-07-29T22:25:43.711Z,23.47
2022-07-29T22:28:10.615Z,23.42
2022-07-29T22:30:37.644Z,23.42
2022-07-29T22:33:04.851Z,23.30
2022-07-29T22:35:31.745Z,23.34
2022-07-29T22:37:58.769Z,23.33
2022-07-29T22:40:30.544Z,23.34
2022-07-29T22:42:57.918Z,23.29
2022-07-29T22:45:24.745Z,23.29
2022-07-29T22:47:57.452Z,23.27
2022-07-29T22:50:26.595Z,23.20
2022-07-29T22:52:53.505Z,23.16
2022-07-29T22:55:20.512Z,23.18
2022-07-29T22:57:47.447Z,23.18
2022-07-29T23:00:15.001Z,23.08
2022-07-29T23:03:02.144Z,23.12
2022-07-29T23:05:29.086Z,23.10
2022-07-29T23:07:56.173Z,22.99
2022-07-29T23:10:23.090Z,22.95
2022-07-29T23:12:49.969Z,22.91
2022-07-29T23:15:16.815Z,22.95
2022-07-29T23:17:45.100Z,22.92
2022-07-29T23:20:12.232Z,22.84
2022-07-29T23:22:42.060Z,22.80
2022-07-29T23:25:09.416Z,22.80
2022-07-29T23:27:36.354Z,22.85
2022-07-29T23:30:04.969Z,22.89
2022-07-29T23:32:31.832Z,22.90
2022-07-29T23:34:58.690Z,22.91
2022-07-29T23:37:26.901Z,22.91
2022-07-29T23:39:54.131Z,22.91
2022-07-29T23:42:21.007Z,22.90
2022-07-29T23:44:47.866Z,22.90
2022-07-29T23:47:14.765Z,22.88
2022-07-29T23:49:41.606Z,22.87
2022-07-29T23:52:08.536Z,22.84
2022-07-29T23:54:35.427Z,22.84
2022-07-29T23:57:02.720Z,22.84
2022-07-29T23:59:29.853Z,22.82
